首页
METAR-TAF:

METAR-TAF

机场 :

埃尔多拉多国际机场

波哥大, 哥伦比亚

纬度: 04-43N, 经度: 074-09W, 海拔: 2547米

当前天气观测

该预报发布于39分钟前的14:00 UTC
风速3节,风向西转西北
温度 17°C
湿度 68%
气压 1028 hPa
能见度10公里或以上
多云层高于2000英尺

METAR: SKBO 231400Z 29003KT 9999 BKN020 17/11 A3035

时间: 09:39 (14:39 UTC)

预报

该预报发布于3小时和39分钟前的11:00 UTC
预报有效从23日的 12点(UTC)到 24日的 12点(UTC)
风速5节,风向西北
能见度10公里或以上
多云层高于1700英尺
散云层高于8000英尺
短暂存在
从 23日的 09点(UTC)到 23日的 13点(UTC)
能見度: 8000
散云层高于1000英尺
多云层高于1700英尺
附近有阵雨
成为
从 23日的 15点(UTC)到 23日的 17点(UTC)
风速13节,风向西北
短暂存在
从 23日的 21点(UTC)到 23日的 24点(UTC)
能見度: 7000
散云层高于1500英尺, 积雨云.
毛毛雨, 雨

TAF: SKBO 231100Z 2312/2412 31005KT 9999 BKN017 SCT080 TEMPO 2309/2313 8000 VCSH SCT010 BKN017 BECMG 2315/2317 32013KT TEMPO 2321/2324 7000 DZRA SCT015CB TX20/2318Z TN10/2411Z

超过4000个机场的气象观测和天气预报(METAR&TAF报告)。

可查询的气象台以黄色和红色小点在地图上表示。

将鼠标移到小点上方,可查看气象台名称。

然后点击查看天气观测和预报。

如需切换地图:点击带黑十字的绿色按钮放大地图;点击带横线的绿色按钮缩小地图;或者点击绿色箭头查看邻近地区的地图。


METAR-TAF: